Time;durP1;ratioP1;P1;durP2;ratioP2;P2;SDS_P1;SDS_P2;PMS_P1;PMS_P2;Temp;Humidity;BMP_temperature;BMP_pressure;BME280_temperature;BME280_humidity;BME280_pressure;Samples;Min_cycle;Max_cycle;Signal;HPM_P1;HPM_P2
2023/09/02 00:03:12;;;;;;;;;;;;;;;15.99;100;101791.1;;;;-81
2023/09/02 00:08:14;;;;;;;;;;;;;;;15.94;100;101786.5;;;;-79
2023/09/02 00:13:10;;;;;;;;;;;;;;;15.94;100;101792.3;;;;-81
2023/09/02 00:18:12;;;;;;;;;;;;;;;15.92;100;101797.9;;;;-80
2023/09/02 00:21:18;;;;;;;116.9;24.7;;;;;;;;;;;;;-80
2023/09/02 00:23:12;;;;;;;;;;;;;;;15.84;100;101786.6;;;;-81
2023/09/02 00:28:12;;;;;;;;;;;;;;;15.86;100;101788.6;;;;-80
2023/09/02 00:33:10;;;;;;;;;;;;;;;15.83;100;101780.4;;;;-82
2023/09/02 00:38:15;;;;;;;;;;;;;;;15.8;100;101779.5;;;;-80
2023/09/02 00:43:10;;;;;;;;;;;;;;;15.78;100;101782.9;;;;-80
2023/09/02 00:48:10;;;;;;;;;;;;;;;15.76;100;101783.4;;;;-81
2023/09/02 00:51:21;;;;;;;120.3;23;;;;;;;;;;;;;-81
2023/09/02 00:53:09;;;;;;;;;;;;;;;15.73;100;101785.7;;;;-80
2023/09/02 00:58:14;;;;;;;;;;;;;;;15.74;100;101781.7;;;;-80
2023/09/02 01:03:10;;;;;;;;;;;;;;;15.75;100;101786;;;;-80
2023/09/02 01:08:24;;;;;;;;;;;;;;;15.75;100;101788.4;;;;-83
2023/09/02 01:13:22;;;;;;;;;;;;;;;15.77;100;101790;;;;-79
2023/09/02 01:18:14;;;;;;;;;;;;;;;15.8;100;101793.3;;;;-79
2023/09/02 01:21:26;;;;;;;93;18.7;;;;;;;;;;;;;-79
2023/09/02 01:23:33;;;;;;;;;;;;;;;15.81;100;101789.6;;;;-82
2023/09/02 01:28:20;;;;;;;;;;;;;;;15.78;100;101788.1;;;;-81
2023/09/02 01:33:23;;;;;;;;;;;;;;;15.76;100;101792.4;;;;-82
2023/09/02 01:38:24;;;;;;;;;;;;;;;15.76;100;101802.1;;;;-81
2023/09/02 01:43:39;;;;;;;;;;;;;;;15.77;100;101801.5;;;;-81
2023/09/02 01:48:15;;;;;;;;;;;;;;;15.75;100;101808.7;;;;-82
2023/09/02 01:51:20;;;;;;;76;15.1;;;;;;;;;;;;;-79
2023/09/02 01:53:13;;;;;;;;;;;;;;;15.73;100;101812;;;;-82
2023/09/02 01:58:17;;;;;;;;;;;;;;;15.72;100;101817.3;;;;-83
2023/09/02 02:09:19;;;;;;;;;;;;;;;15.53;100;101794.5;;;;-79
2023/09/02 02:14:17;;;;;;;;;;;;;;;15.73;100;101834.1;;;;-80
2023/09/02 02:19:33;;;;;;;;;;;;;;;15.77;100;101833;;;;-79
2023/09/02 02:21:23;;;;;;;78.9;15.8;;;;;;;;;;;;;-80
2023/09/02 02:24:18;;;;;;;;;;;;;;;15.82;100;101839;;;;-79
2023/09/02 02:29:20;;;;;;;;;;;;;;;15.82;100;101840.1;;;;-78
2023/09/02 02:34:15;;;;;;;;;;;;;;;15.82;100;101834.8;;;;-78
2023/09/02 02:39:18;;;;;;;;;;;;;;;15.85;100;101830;;;;-79
2023/09/02 02:44:15;;;;;;;;;;;;;;;15.84;100;101831.6;;;;-80
2023/09/02 02:49:16;;;;;;;;;;;;;;;15.82;100;101828.8;;;;-80
2023/09/02 02:51:23;;;;;;;110.8;18.7;;;;;;;;;;;;;-80
2023/09/02 02:54:18;;;;;;;;;;;;;;;15.84;100;101827.4;;;;-78
2023/09/02 02:59:17;;;;;;;;;;;;;;;15.83;100;101825.7;;;;-79
2023/09/02 03:04:17;;;;;;;;;;;;;;;15.86;100;101838;;;;-80
2023/09/02 03:09:16;;;;;;;;;;;;;;;15.88;100;101841.4;;;;-81
2023/09/02 03:14:15;;;;;;;;;;;;;;;15.89;100;101839.4;;;;-80
2023/09/02 03:19:16;;;;;;;;;;;;;;;15.88;100;101840.1;;;;-80
2023/09/02 03:21:29;;;;;;;127;20.7;;;;;;;;;;;;;-79
2023/09/02 03:24:15;;;;;;;;;;;;;;;15.87;100;101841.5;;;;-80
2023/09/02 03:29:15;;;;;;;;;;;;;;;15.9;100;101841.1;;;;-77
2023/09/02 03:34:15;;;;;;;;;;;;;;;15.93;100;101856.5;;;;-80
2023/09/02 03:39:15;;;;;;;;;;;;;;;15.94;100;101859.8;;;;-78
2023/09/02 03:44:15;;;;;;;;;;;;;;;15.95;100;101860.2;;;;-79
2023/09/02 03:49:17;;;;;;;;;;;;;;;15.98;100;101860.8;;;;-78
2023/09/02 03:51:28;;;;;;;101.4;18.5;;;;;;;;;;;;;-79
2023/09/02 03:54:15;;;;;;;;;;;;;;;16.02;100;101873.4;;;;-80
2023/09/02 03:59:15;;;;;;;;;;;;;;;16.06;100;101871.4;;;;-79
2023/09/02 04:04:16;;;;;;;;;;;;;;;16.1;100;101871.9;;;;-81
2023/09/02 04:09:15;;;;;;;;;;;;;;;16.13;100;101873.6;;;;-80
2023/09/02 04:14:16;;;;;;;;;;;;;;;16.1;100;101875;;;;-78
2023/09/02 04:19:17;;;;;;;;;;;;;;;16.12;100;101875.5;;;;-81
2023/09/02 04:21:32;;;;;;;62.6;12.8;;;;;;;;;;;;;-80
2023/09/02 04:24:15;;;;;;;;;;;;;;;16.13;100;101878;;;;-79
2023/09/02 04:29:18;;;;;;;;;;;;;;;16.09;100;101889.3;;;;-79
2023/09/02 04:34:15;;;;;;;;;;;;;;;15.97;100;101891.3;;;;-80
2023/09/02 04:39:15;;;;;;;;;;;;;;;15.94;100;101896.4;;;;-80
2023/09/02 04:44:19;;;;;;;;;;;;;;;15.92;100;101891.9;;;;-78
2023/09/02 04:49:15;;;;;;;;;;;;;;;15.96;100;101897;;;;-80
2023/09/02 04:51:37;;;;;;;124.3;21.7;;;;;;;;;;;;;-79
2023/09/02 04:54:15;;;;;;;;;;;;;;;15.95;100;101896;;;;-79
2023/09/02 04:59:15;;;;;;;;;;;;;;;15.92;100;101902;;;;-79
2023/09/02 05:04:18;;;;;;;;;;;;;;;15.87;100;101906.4;;;;-78
2023/09/02 05:09:15;;;;;;;;;;;;;;;15.92;100;101913.8;;;;-79
2023/09/02 05:14:15;;;;;;;;;;;;;;;15.9;100;101921.7;;;;-77
2023/09/02 05:19:15;;;;;;;;;;;;;;;15.9;100;101929.3;;;;-81
2023/09/02 05:21:37;;;;;;;217.2;33.3;;;;;;;;;;;;;-79
2023/09/02 05:24:15;;;;;;;;;;;;;;;15.93;100;101936.1;;;;-80
2023/09/02 05:29:15;;;;;;;;;;;;;;;15.96;100;101926.8;;;;-80
2023/09/02 05:34:15;;;;;;;;;;;;;;;15.9;100;101931.5;;;;-79
2023/09/02 05:39:15;;;;;;;;;;;;;;;15.91;100;101936.7;;;;-78
2023/09/02 05:44:15;;;;;;;;;;;;;;;15.95;100;101936;;;;-79
2023/09/02 05:49:15;;;;;;;;;;;;;;;15.96;100;101937.7;;;;-79
2023/09/02 05:51:41;;;;;;;163.2;29.4;;;;;;;;;;;;;-80
2023/09/02 05:54:16;;;;;;;;;;;;;;;15.98;100;101939.8;;;;-79
2023/09/02 05:59:15;;;;;;;;;;;;;;;16.01;100;101945.3;;;;-79
2023/09/02 06:04:15;;;;;;;;;;;;;;;16;100;101945.4;;;;-79
2023/09/02 06:09:16;;;;;;;;;;;;;;;16.06;100;101954;;;;-79
2023/09/02 06:14:16;;;;;;;;;;;;;;;16.11;100;101962.2;;;;-80
2023/09/02 06:19:15;;;;;;;;;;;;;;;16.2;100;101968.3;;;;-81
2023/09/02 06:21:45;;;;;;;215.5;33.4;;;;;;;;;;;;;-79
2023/09/02 06:24:15;;;;;;;;;;;;;;;16.33;100;101981.4;;;;-81
2023/09/02 06:29:15;;;;;;;;;;;;;;;16.47;100;101986.8;;;;-80
2023/09/02 06:34:15;;;;;;;;;;;;;;;16.57;100;101994.9;;;;-79
2023/09/02 06:39:15;;;;;;;;;;;;;;;16.55;100;102001.6;;;;-79
2023/09/02 06:44:16;;;;;;;;;;;;;;;16.61;100;102012.2;;;;-79
2023/09/02 06:49:16;;;;;;;;;;;;;;;16.59;100;102020.4;;;;-79
2023/09/02 06:51:44;;;;;;;168.8;29.4;;;;;;;;;;;;;-79
2023/09/02 06:54:15;;;;;;;;;;;;;;;16.67;100;102022.9;;;;-79
2023/09/02 06:59:15;;;;;;;;;;;;;;;16.69;100;102031;;;;-81
2023/09/02 07:04:15;;;;;;;;;;;;;;;16.58;100;102039.7;;;;-79
2023/09/02 07:09:19;;;;;;;;;;;;;;;16.53;100;102031.9;;;;-79
2023/09/02 07:14:15;;;;;;;;;;;;;;;16.61;100;102046.7;;;;-77
2023/09/02 07:19:15;;;;;;;;;;;;;;;16.64;100;102054.5;;;;-79
2023/09/02 07:21:47;;;;;;;142.9;27.7;;;;;;;;;;;;;-79
2023/09/02 07:24:15;;;;;;;;;;;;;;;16.6;100;102060.2;;;;-79
2023/09/02 07:29:15;;;;;;;;;;;;;;;16.64;100;102070;;;;-79
2023/09/02 07:34:17;;;;;;;;;;;;;;;16.62;100;102081.5;;;;-77
2023/09/02 07:39:16;;;;;;;;;;;;;;;16.62;100;102085.4;;;;-77
2023/09/02 07:44:15;;;;;;;;;;;;;;;16.58;100;102090.1;;;;-78
2023/09/02 07:49:15;;;;;;;;;;;;;;;16.61;100;102092.4;;;;-79
2023/09/02 07:51:50;;;;;;;126.7;26.2;;;;;;;;;;;;;-77
2023/09/02 07:54:15;;;;;;;;;;;;;;;16.65;100;102099;;;;-79
2023/09/02 07:59:15;;;;;;;;;;;;;;;16.62;100;102104.8;;;;-79
2023/09/02 08:04:15;;;;;;;;;;;;;;;16.68;100;102110.2;;;;-79
2023/09/02 08:09:19;;;;;;;;;;;;;;;16.74;100;102113.6;;;;-79
2023/09/02 08:14:15;;;;;;;;;;;;;;;16.81;100;102124.1;;;;-82
2023/09/02 08:19:15;;;;;;;;;;;;;;;16.84;100;102126.9;;;;-78
2023/09/02 08:21:52;;;;;;;100.5;25.8;;;;;;;;;;;;;-77
2023/09/02 08:24:15;;;;;;;;;;;;;;;16.86;100;102138.4;;;;-79
2023/09/02 08:29:15;;;;;;;;;;;;;;;16.89;100;102151.4;;;;-79
2023/09/02 08:34:15;;;;;;;;;;;;;;;16.87;100;102157.2;;;;-79
2023/09/02 08:39:15;;;;;;;;;;;;;;;16.95;100;102156.2;;;;-81
2023/09/02 08:44:19;;;;;;;;;;;;;;;17.07;100;102158.5;;;;-80
2023/09/02 08:49:15;;;;;;;;;;;;;;;17.27;100;102170.2;;;;-80
2023/09/02 08:51:56;;;;;;;107.3;31.3;;;;;;;;;;;;;-79
2023/09/02 08:54:15;;;;;;;;;;;;;;;17.59;100;102172.7;;;;-76
2023/09/02 08:59:16;;;;;;;;;;;;;;;17.93;100;102172.6;;;;-78
2023/09/02 09:04:16;;;;;;;;;;;;;;;18.18;100;102173.9;;;;-78
2023/09/02 09:09:15;;;;;;;;;;;;;;;18.5;100;102174;;;;-78
2023/09/02 09:14:21;;;;;;;;;;;;;;;18.64;100;102175.4;;;;-81
2023/09/02 09:28:16;;;;;;;;;;;;;;;19.15;100;102193.2;;;;-80
2023/09/02 09:33:13;;;;;;;;;;;;;;;19.49;100;102197.9;;;;-79
2023/09/02 09:38:12;;;;;;;;;;;;;;;19.6;100;102201;;;;-80
2023/09/02 09:43:27;;;;;;;;;;;;;;;19.69;100;102209.9;;;;-80
2023/09/02 09:48:17;;;;;;;;;;;;;;;20.11;100;102214;;;;-78
2023/09/02 09:52:15;;;;;;;30;17.1;;;;;;;;;;;;;-79
2023/09/02 09:53:13;;;;;;;;;;;;;;;20.38;100;102220.7;;;;-79
2023/09/02 09:58:12;;;;;;;;;;;;;;;20.68;100;102216;;;;-79
2023/09/02 10:03:12;;;;;;;;;;;;;;;20.87;95.53418;102229.3;;;;-79
2023/09/02 10:08:13;;;;;;;;;;;;;;;20.97;98.46387;102230.6;;;;-79
2023/09/02 10:13:15;;;;;;;;;;;;;;;20.94;92.98828;102234.8;;;;-80
2023/09/02 10:18:13;;;;;;;;;;;;;;;21.12;91.74805;102248.5;;;;-80
2023/09/02 10:22:05;;;;;;;12.5;9.1;;;;;;;;;;;;;-77
2023/09/02 10:23:14;;;;;;;;;;;;;;;21.17;88.51367;102252.7;;;;-79
2023/09/02 10:28:15;;;;;;;;;;;;;;;21.24;88.15527;102260.9;;;;-80
2023/09/02 10:33:15;;;;;;;;;;;;;;;21.25;83.98047;102261.1;;;;-79
2023/09/02 10:38:14;;;;;;;;;;;;;;;21.26;85.20605;102253.4;;;;-79
2023/09/02 10:43:13;;;;;;;;;;;;;;;21.54;86.28906;102264;;;;-80
2023/09/02 10:48:13;;;;;;;;;;;;;;;21.49;83.25586;102275.7;;;;-79
2023/09/02 10:52:09;;;;;;;12.2;8.1;;;;;;;;;;;;;-78
2023/09/02 10:53:14;;;;;;;;;;;;;;;21.32;81.35352;102283.1;;;;-80
2023/09/02 10:58:13;;;;;;;;;;;;;;;21.35;79.91797;102288;;;;-80
2023/09/02 11:03:12;;;;;;;;;;;;;;;21.54;79.72656;102293.5;;;;-80
2023/09/02 11:08:29;;;;;;;;;;;;;;;21.75;81.52148;102294.1;;;;-80
2023/09/02 11:13:14;;;;;;;;;;;;;;;21.72;79.01953;102289.7;;;;-78
2023/09/02 11:18:23;;;;;;;;;;;;;;;22.01;78.48047;102291.1;;;;-78
2023/09/02 11:22:23;;;;;;;9.3;5.8;;;;;;;;;;;;;-78
2023/09/02 11:23:26;;;;;;;;;;;;;;;21.93;74.29492;102301.8;;;;-79
2023/09/02 11:28:13;;;;;;;;;;;;;;;22.05;75.6543;102298.9;;;;-78
2023/09/02 11:33:13;;;;;;;;;;;;;;;22.17;73.92285;102301;;;;-79
2023/09/02 11:38:21;;;;;;;;;;;;;;;22.34;72.90332;102302.5;;;;-79
2023/09/02 11:43:21;;;;;;;;;;;;;;;22.28;71.77734;102304.9;;;;-79
2023/09/02 11:48:13;;;;;;;;;;;;;;;22.23;71.98633;102312.1;;;;-79
2023/09/02 11:52:17;;;;;;;10.1;7.3;;;;;;;;;;;;;-78
2023/09/02 11:53:17;;;;;;;;;;;;;;;22.46;72.61523;102320.4;;;;-80
2023/09/02 11:58:18;;;;;;;;;;;;;;;22.6;67.6416;102325.1;;;;-80
2023/09/02 12:03:14;;;;;;;;;;;;;;;22.6;68.82813;102329.7;;;;-77
2023/09/02 12:08:14;;;;;;;;;;;;;;;22.2;71.39941;102331.5;;;;-79
2023/09/02 12:13:14;;;;;;;;;;;;;;;22.16;72.54395;102325.8;;;;-79
2023/09/02 12:18:12;;;;;;;;;;;;;;;22.37;70.23047;102319.3;;;;-78
2023/09/02 12:22:21;;;;;;;14.6;9.7;;;;;;;;;;;;;-79
2023/09/02 12:23:13;;;;;;;;;;;;;;;22.59;71.29102;102320.7;;;;-79
2023/09/02 12:28:19;;;;;;;;;;;;;;;22.91;68.61426;102315.4;;;;-79
2023/09/02 12:33:12;;;;;;;;;;;;;;;23.16;70.36523;102320.1;;;;-78
2023/09/02 12:38:14;;;;;;;;;;;;;;;23.29;64.18848;102320;;;;-81
2023/09/02 12:43:13;;;;;;;;;;;;;;;23.38;64.05371;102314.1;;;;-80
2023/09/02 12:48:14;;;;;;;;;;;;;;;23.42;60.08203;102318;;;;-81
2023/09/02 12:52:29;;;;;;;14.5;8.6;;;;;;;;;;;;;-79
2023/09/02 12:53:16;;;;;;;;;;;;;;;23.43;62.65137;102314.6;;;;-79
2023/09/02 12:58:13;;;;;;;;;;;;;;;23.65;60.88184;102315.1;;;;-78
2023/09/02 13:03:15;;;;;;;;;;;;;;;23.65;61.76465;102321.2;;;;-79
2023/09/02 13:08:17;;;;;;;;;;;;;;;23.76;58.82031;102323.3;;;;-79
2023/09/02 13:13:13;;;;;;;;;;;;;;;24.11;62.96289;102320.4;;;;-78
2023/09/02 13:18:14;;;;;;;;;;;;;;;24.44;61.3916;102319.8;;;;-79
2023/09/02 13:22:30;;;;;;;17.8;10.5;;;;;;;;;;;;;-80
2023/09/02 13:23:13;;;;;;;;;;;;;;;24.62;62.25391;102318.8;;;;-79
2023/09/02 13:28:15;;;;;;;;;;;;;;;24.86;59.57422;102315.2;;;;-79
2023/09/02 13:33:17;;;;;;;;;;;;;;;24.83;56.15332;102318.6;;;;-78
2023/09/02 13:38:13;;;;;;;;;;;;;;;25.01;56.75098;102316.3;;;;-79
2023/09/02 13:43:19;;;;;;;;;;;;;;;25.09;56.07031;102316.3;;;;-78
2023/09/02 13:48:13;;;;;;;;;;;;;;;25.33;54.1748;102314.5;;;;-78
2023/09/02 13:52:34;;;;;;;14.1;9.7;;;;;;;;;;;;;-79
2023/09/02 13:53:15;;;;;;;;;;;;;;;25.31;53.44629;102306.8;;;;-79
2023/09/02 13:58:19;;;;;;;;;;;;;;;25.42;53.4248;102304.3;;;;-79
2023/09/02 14:03:19;;;;;;;;;;;;;;;25.42;53.16992;102311.1;;;;-78
2023/09/02 14:08:13;;;;;;;;;;;;;;;25.56;53.75195;102311.9;;;;-79
2023/09/02 14:13:13;;;;;;;;;;;;;;;25.44;54.34863;102321.1;;;;-77
2023/09/02 14:18:13;;;;;;;;;;;;;;;25.5;53.30664;102328.5;;;;-78
2023/09/02 14:22:40;;;;;;;14.2;8.7;;;;;;;;;;;;;-79
2023/09/02 14:23:14;;;;;;;;;;;;;;;25.77;54.5498;102321.4;;;;-78
2023/09/02 14:28:14;;;;;;;;;;;;;;;25.65;52.07813;102311.9;;;;-78
2023/09/02 14:33:15;;;;;;;;;;;;;;;25.82;56.51953;102330.3;;;;-79
2023/09/02 14:38:13;;;;;;;;;;;;;;;26.13;55.19434;102335.5;;;;-78
2023/09/02 14:43:12;;;;;;;;;;;;;;;26.18;50.87891;102347;;;;-78
2023/09/02 14:48:13;;;;;;;;;;;;;;;26.23;53.11523;102352;;;;-78
2023/09/02 14:52:44;;;;;;;10.7;5.7;;;;;;;;;;;;;-79
2023/09/02 14:53:17;;;;;;;;;;;;;;;26.26;50.4707;102337.3;;;;-77
2023/09/02 14:58:15;;;;;;;;;;;;;;;26.35;50.35449;102350.4;;;;-78
2023/09/02 15:03:19;;;;;;;;;;;;;;;26.28;47.82324;102354.8;;;;-77
2023/09/02 15:08:15;;;;;;;;;;;;;;;26.22;47.88574;102359.2;;;;-79
2023/09/02 15:13:12;;;;;;;;;;;;;;;26.14;49.23145;102349.5;;;;-80
2023/09/02 15:18:16;;;;;;;;;;;;;;;26.1;47.24805;102344.4;;;;-79
2023/09/02 15:22:51;;;;;;;8.2;3.9;;;;;;;;;;;;;-79
2023/09/02 15:23:13;;;;;;;;;;;;;;;26.2;47.54785;102351.5;;;;-80
2023/09/02 15:28:13;;;;;;;;;;;;;;;26.17;49.30371;102356.6;;;;-80
2023/09/02 15:33:13;;;;;;;;;;;;;;;26.15;49.04785;102359.6;;;;-78
2023/09/02 15:38:18;;;;;;;;;;;;;;;26.12;47.38965;102371;;;;-79
2023/09/02 15:43:14;;;;;;;;;;;;;;;26.41;52.97559;102380.5;;;;-80
2023/09/02 15:48:19;;;;;;;;;;;;;;;26.4;48.03223;102380.7;;;;-80
2023/09/02 15:52:56;;;;;;;7.8;3.3;;;;;;;;;;;;;-80
2023/09/02 15:53:12;;;;;;;;;;;;;;;26.29;47.93945;102383.1;;;;-80
2023/09/02 15:58:13;;;;;;;;;;;;;;;26.12;46.84473;102392.2;;;;-79
2023/09/02 16:03:13;;;;;;;;;;;;;;;25.83;48.26074;102393.2;;;;-78
2023/09/02 16:08:16;;;;;;;;;;;;;;;25.73;48.64355;102398.5;;;;-80
2023/09/02 16:13:16;;;;;;;;;;;;;;;25.62;49.90234;102400.2;;;;-79
2023/09/02 16:18:14;;;;;;;;;;;;;;;25.57;50.95996;102397.5;;;;-79
2023/09/02 16:23:13;;;;;;;;;;;;;;;;;;;;;
2023/09/02 16:23:25;;;;;;;;;;;;;;;25.55;56.7041;102397.7;;;;-77
2023/09/02 16:28:13;;;;;;;;;;;;;;;25.18;50.68457;102384.8;;;;-79
2023/09/02 16:33:13;;;;;;;;;;;;;;;25.17;54.4209;102398.3;;;;-79
2023/09/02 16:38:15;;;;;;;;;;;;;;;24.97;52.63281;102404.7;;;;-79
2023/09/02 16:43:15;;;;;;;;;;;;;;;24.69;55.3418;102397.9;;;;-79
2023/09/02 16:48:15;;;;;;;;;;;;;;;24.43;53.43359;102401.5;;;;-79
2023/09/02 16:53:08;;;;;;;5.5;3;;;;;;;;;;;;;-80
2023/09/02 16:53:24;;;;;;;;;;;;;;;23.9;54.65918;102366.1;;;;-80
2023/09/02 16:58:13;;;;;;;;;;;;;;;24.05;56.94043;102415.6;;;;-80
2023/09/02 17:03:14;;;;;;;;;;;;;;;23.75;59.93262;102432.5;;;;-79
2023/09/02 17:08:13;;;;;;;;;;;;;;;23.49;59.70313;102429.1;;;;-80
2023/09/02 17:13:13;;;;;;;;;;;;;;;23.16;59.31543;102434.6;;;;-79
2023/09/02 17:18:12;;;;;;;;;;;;;;;23.12;59.66504;102434.9;;;;-80
2023/09/02 17:23:11;;;;;;;4.3;2.4;;;;;;;;;;;;;-79
2023/09/02 17:23:25;;;;;;;;;;;;;;;22.63;61.5791;102382.1;;;;-82
2023/09/02 17:28:14;;;;;;;;;;;;;;;22.64;60.48242;102433.8;;;;-79
2023/09/02 17:33:13;;;;;;;;;;;;;;;22.51;61.71191;102443.1;;;;-81
2023/09/02 17:38:13;;;;;;;;;;;;;;;22.11;61.67969;102446.8;;;;-80
2023/09/02 17:43:13;;;;;;;;;;;;;;;21.86;63.01367;102451.5;;;;-80
2023/09/02 17:48:15;;;;;;;;;;;;;;;21.64;63.70215;102457.7;;;;-80
2023/09/02 17:53:15;;;;;;;;;;;;;;;21.35;65.31348;102463.4;;;;-80
2023/09/02 17:53:28;;;;;;;4.7;3;;;;;;;;;;;;;-80
2023/09/02 17:58:13;;;;;;;;;;;;;;;21.05;66.53223;102452.6;;;;-80
2023/09/02 18:03:20;;;;;;;;;;;;;;;20.84;67.48047;102469.6;;;;-81
2023/09/02 18:08:14;;;;;;;;;;;;;;;20.56;69.09473;102473.5;;;;-81
2023/09/02 18:13:13;;;;;;;;;;;;;;;20.35;70.0957;102469.8;;;;-79
2023/09/02 18:18:18;;;;;;;;;;;;;;;20.1;71.19141;102473.5;;;;-80
2023/09/02 18:23:13;;;;;;;;;;;;;;;19.92;72.39844;102477;;;;-80
2023/09/02 18:23:23;;;;;;;5.3;3;;;;;;;;;;;;;-80
2023/09/02 18:28:13;;;;;;;;;;;;;;;19.68;73.35352;102470.9;;;;-81
2023/09/02 18:33:15;;;;;;;;;;;;;;;19.47;74.24902;102478.8;;;;-79
2023/09/02 18:38:13;;;;;;;;;;;;;;;19.28;75.3252;102489.7;;;;-80
2023/09/02 18:43:13;;;;;;;;;;;;;;;19.1;76.68359;102504.1;;;;-78
2023/09/02 18:48:16;;;;;;;;;;;;;;;18.94;77.55859;102507.1;;;;-80
2023/09/02 18:53:35;;;;;;;;;;;;;;;18.81;77.68359;102513;;;;-81
2023/09/02 18:53:47;;;;;;;4.8;3.8;;;;;;;;;;;;;-81
2023/09/02 18:58:19;;;;;;;;;;;;;;;18.67;79.22754;102513.5;;;;-79
2023/09/02 19:03:13;;;;;;;;;;;;;;;18.48;80.5459;102515;;;;-79
2023/09/02 19:08:13;;;;;;;;;;;;;;;18.36;81.28809;102517.6;;;;-80
2023/09/02 19:13:13;;;;;;;;;;;;;;;18.19;82.42871;102528.5;;;;-80
2023/09/02 19:18:13;;;;;;;;;;;;;;;18.05;83.05566;102532.3;;;;-78
2023/09/02 19:23:16;;;;;;;;;;;;;;;17.91;82.86035;102540.3;;;;-78
2023/09/02 19:23:28;;;;;;;7.4;5.5;;;;;;;;;;;;;-78
2023/09/02 19:28:16;;;;;;;;;;;;;;;17.79;84.0293;102548.6;;;;-81
2023/09/02 19:33:13;;;;;;;;;;;;;;;17.68;86.47949;102555.4;;;;-81
2023/09/02 19:38:14;;;;;;;;;;;;;;;17.56;86.56836;102557.3;;;;-79
2023/09/02 19:43:12;;;;;;;;;;;;;;;17.46;87.06543;102566.3;;;;-78
2023/09/02 19:48:15;;;;;;;;;;;;;;;17.31;88.68262;102568;;;;-80
2023/09/02 19:53:26;;;;;;;;;;;;;;;17.18;86.33887;102567.8;;;;-79
2023/09/02 19:53:48;;;;;;;9.4;6.9;;;;;;;;;;;;;-79
2023/09/02 19:58:14;;;;;;;;;;;;;;;17.11;90.65918;102583.2;;;;-80
2023/09/02 20:03:15;;;;;;;;;;;;;;;17;90.14648;102592.9;;;;-80
2023/09/02 20:08:21;;;;;;;;;;;;;;;16.92;90.65332;102601.5;;;;-80
2023/09/02 20:13:13;;;;;;;;;;;;;;;16.81;92.76758;102608;;;;-79
2023/09/02 20:18:12;;;;;;;;;;;;;;;16.73;93.30078;102614.5;;;;-79
2023/09/02 20:23:12;;;;;;;;;;;;;;;16.63;93.02246;102605.9;;;;-78
2023/09/02 20:23:31;;;;;;;9.3;7;;;;;;;;;;;;;-80
2023/09/02 20:28:12;;;;;;;;;;;;;;;16.6;95.13965;102610.1;;;;-79
2023/09/02 20:33:18;;;;;;;;;;;;;;;16.55;94.48047;102615.5;;;;-79
2023/09/02 20:38:14;;;;;;;;;;;;;;;16.49;94.54492;102618.2;;;;-79
2023/09/02 20:43:13;;;;;;;;;;;;;;;16.42;95.88184;102619.3;;;;-80
2023/09/02 20:48:13;;;;;;;;;;;;;;;16.34;95.3291;102621.2;;;;-79
2023/09/02 20:53:15;;;;;;;;;;;;;;;16.26;93.83789;102623.8;;;;-80
2023/09/02 20:53:36;;;;;;;11.3;8.3;;;;;;;;;;;;;-78
2023/09/02 20:58:15;;;;;;;;;;;;;;;16.19;95.21777;102628;;;;-79
2023/09/02 21:03:13;;;;;;;;;;;;;;;16.08;95.65137;102633.3;;;;-80
2023/09/02 21:08:13;;;;;;;;;;;;;;;16;94.80859;102634.7;;;;-81
2023/09/02 21:13:19;;;;;;;;;;;;;;;15.9;96.11621;102630.5;;;;-80
2023/09/02 21:18:12;;;;;;;;;;;;;;;15.77;97.2334;102638.1;;;;-79
2023/09/02 21:23:12;;;;;;;;;;;;;;;15.65;98.91016;102641.9;;;;-78
2023/09/02 21:23:36;;;;;;;12.2;9;;;;;;;;;;;;;-80
2023/09/02 21:28:13;;;;;;;;;;;;;;;15.53;98.1416;102643.9;;;;-79
2023/09/02 21:33:21;;;;;;;;;;;;;;;15.41;98.49219;102653.3;;;;-81
2023/09/02 21:38:17;;;;;;;;;;;;;;;15.31;100;102674;;;;-83
2023/09/02 21:43:13;;;;;;;;;;;;;;;15.19;100;102688.7;;;;-81
2023/09/02 21:48:16;;;;;;;;;;;;;;;15.08;100;102700;;;;-81
2023/09/02 21:53:20;;;;;;;;;;;;;;;14.96;100;102705.4;;;;-81
2023/09/02 21:53:45;;;;;;;15.7;11.7;;;;;;;;;;;;;-81
2023/09/02 21:58:14;;;;;;;;;;;;;;;14.87;100;102715.1;;;;-80
2023/09/02 22:03:13;;;;;;;;;;;;;;;14.76;100;102715.9;;;;-81
2023/09/02 22:08:15;;;;;;;;;;;;;;;14.67;100;102725.3;;;;-80
2023/09/02 22:13:13;;;;;;;;;;;;;;;14.61;100;102727.2;;;;-81
2023/09/02 22:18:13;;;;;;;;;;;;;;;14.5;100;102710.8;;;;-82
2023/09/02 22:23:15;;;;;;;;;;;;;;;14.45;100;102720.3;;;;-80
2023/09/02 22:23:41;;;;;;;13.9;11.1;;;;;;;;;;;;;-82
2023/09/02 22:28:13;;;;;;;;;;;;;;;14.39;100;102715.5;;;;-80
2023/09/02 22:33:16;;;;;;;;;;;;;;;14.32;100;102709.4;;;;-80
2023/09/02 22:38:13;;;;;;;;;;;;;;;14.25;100;102701.4;;;;-81
2023/09/02 22:43:13;;;;;;;;;;;;;;;14.19;100;102711.8;;;;-81
2023/09/02 22:48:13;;;;;;;;;;;;;;;14.08;100;102698.4;;;;-79
2023/09/02 22:53:13;;;;;;;;;;;;;;;14.04;100;102705.3;;;;-80
2023/09/02 22:53:44;;;;;;;30.4;13;;;;;;;;;;;;;-81
2023/09/02 22:58:16;;;;;;;;;;;;;;;13.73;100;102703.3;;;;-79
2023/09/02 23:03:13;;;;;;;;;;;;;;;13.73;100;102721.1;;;;-79
2023/09/02 23:08:13;;;;;;;;;;;;;;;13.7;100;102733.9;;;;-82
2023/09/02 23:13:13;;;;;;;;;;;;;;;13.68;100;102718.1;;;;-82
2023/09/02 23:18:18;;;;;;;;;;;;;;;13.63;100;102732.4;;;;-82
2023/09/02 23:23:14;;;;;;;;;;;;;;;13.61;100;102741.9;;;;-83
2023/09/02 23:23:46;;;;;;;16.1;11.5;;;;;;;;;;;;;-82
2023/09/02 23:33:13;;;;;;;;;;;;;;;13.56;100;102729.1;;;;-81
2023/09/02 23:38:15;;;;;;;;;;;;;;;13.55;100;102728.1;;;;-82
2023/09/02 23:43:13;;;;;;;;;;;;;;;13.53;100;102739.1;;;;-82
2023/09/02 23:48:26;;;;;;;;;;;;;;;13.49;100;102741.5;;;;-81
2023/09/02 23:53:14;;;;;;;;;;;;;;;13.42;100;102735;;;;-80
2023/09/02 23:53:48;;;;;;;13.1;9.8;;;;;;;;;;;;;-80
2023/09/02 23:58:19;;;;;;;;;;;;;;;13.37;100;102731.8;;;;-82
